createdAt,value
2019-02-04T00:01:43.540Z,67.00
2019-02-04T00:04:11.505Z,67.50
2019-02-04T00:06:39.507Z,68.53
2019-02-04T00:09:08.682Z,67.87
2019-02-04T00:11:36.772Z,69.13
2019-02-04T00:14:04.818Z,67.77
2019-02-04T00:16:40.535Z,67.10
2019-02-04T00:21:46.240Z,67.03
2019-02-04T00:26:55.809Z,65.87
2019-02-04T00:29:23.882Z,66.10
2019-02-04T00:31:51.933Z,67.70
2019-02-04T00:34:19.929Z,66.67
2019-02-04T00:36:47.921Z,66.17
2019-02-04T00:39:15.949Z,66.33
2019-02-04T00:41:43.932Z,67.70
2019-02-04T00:44:12.005Z,68.57
2019-02-04T00:46:40.092Z,68.70
2019-02-04T00:49:08.129Z,66.97
2019-02-04T00:51:36.205Z,69.77
2019-02-04T00:54:04.367Z,66.50
2019-02-04T00:56:33.998Z,67.10
2019-02-04T00:59:02.090Z,67.23
2019-02-04T01:01:30.116Z,66.47
2019-02-04T01:03:58.141Z,67.30
2019-02-04T01:06:26.202Z,68.90
2019-02-04T01:11:36.752Z,68.07
2019-02-04T01:14:04.714Z,66.57
2019-02-04T01:16:32.663Z,68.80
2019-02-04T01:19:00.696Z,66.57
2019-02-04T01:21:28.725Z,69.00
2019-02-04T01:23:56.803Z,67.40
2019-02-04T01:26:24.780Z,65.60
2019-02-04T01:28:52.936Z,67.20
2019-02-04T01:31:20.926Z,67.10
2019-02-04T01:33:48.885Z,67.83
2019-02-04T01:36:16.870Z,68.13
2019-02-04T01:38:44.927Z,66.70
2019-02-04T01:41:12.980Z,66.77
2019-02-04T01:43:41.257Z,66.70
2019-02-04T01:46:09.225Z,68.80
2019-02-04T01:48:37.219Z,68.17
2019-02-04T01:51:05.179Z,68.03
2019-02-04T01:53:33.284Z,68.30
2019-02-04T01:56:02.982Z,71.60
2019-02-04T01:58:31.055Z,68.00
2019-02-04T02:00:59.133Z,67.17
2019-02-04T02:03:27.169Z,68.40
2019-02-04T02:05:55.156Z,68.03
2019-02-04T02:08:23.254Z,68.47
2019-02-04T02:10:51.215Z,69.57
2019-02-04T02:13:19.238Z,67.80
2019-02-04T02:15:47.196Z,68.60
2019-02-04T02:18:15.113Z,67.90
2019-02-04T02:20:43.135Z,66.57
2019-02-04T02:23:11.149Z,66.30
2019-02-04T02:25:39.205Z,67.30
2019-02-04T02:28:08.846Z,69.80
2019-02-04T02:30:36.764Z,67.23
2019-02-04T02:33:04.764Z,68.77
2019-02-04T02:35:32.872Z,73.23
2019-02-04T02:38:00.906Z,68.23
2019-02-04T02:40:47.911Z,67.23
2019-02-04T02:43:16.025Z,68.10
2019-02-04T02:45:44.062Z,67.53
2019-02-04T02:48:12.132Z,71.77
2019-02-04T02:50:40.173Z,65.77
2019-02-04T02:53:08.143Z,71.27
2019-02-04T02:55:37.777Z,66.77
2019-02-04T02:58:05.823Z,69.20
2019-02-04T03:00:33.877Z,66.57
2019-02-04T03:03:01.874Z,66.67
2019-02-04T03:05:29.838Z,67.67
2019-02-04T03:07:57.846Z,66.07
2019-02-04T03:10:27.070Z,66.77
2019-02-04T03:12:55.115Z,68.70
2019-02-04T03:15:23.204Z,67.53
2019-02-04T03:17:52.602Z,67.63
2019-02-04T03:20:20.846Z,67.10
2019-02-04T03:22:49.002Z,66.60
2019-02-04T03:25:17.009Z,68.50
2019-02-04T03:27:45.102Z,66.70
2019-02-04T03:30:15.037Z,66.70
2019-02-04T03:32:43.075Z,66.87
2019-02-04T03:35:11.095Z,71.17
2019-02-04T03:37:39.060Z,67.20
2019-02-04T03:40:07.193Z,67.20
2019-02-04T03:42:36.905Z,67.47
2019-02-04T03:45:04.943Z,66.47
2019-02-04T03:47:32.896Z,66.70
2019-02-04T03:50:00.893Z,67.20
2019-02-04T03:52:28.929Z,67.60
2019-02-04T03:54:56.926Z,66.50
2019-02-04T03:57:25.188Z,66.07
2019-02-04T03:59:53.157Z,71.10
2019-02-04T04:02:21.124Z,68.30
2019-02-04T04:04:49.094Z,67.37
2019-02-04T04:07:17.097Z,66.67
2019-02-04T04:09:45.135Z,69.03
2019-02-04T04:12:13.220Z,66.47
2019-02-04T04:14:41.253Z,68.27
2019-02-04T04:17:09.256Z,74.20
2019-02-04T04:19:37.317Z,78.80
2019-02-04T04:22:05.275Z,68.10
2019-02-04T04:24:33.267Z,66.40
2019-02-04T04:27:01.222Z,69.43
2019-02-04T04:29:30.889Z,67.73
2019-02-04T04:31:58.904Z,67.67
2019-02-04T04:34:26.857Z,67.90
2019-02-04T04:36:54.916Z,69.83
2019-02-04T04:39:22.896Z,67.10
2019-02-04T04:41:50.900Z,66.87
2019-02-04T04:44:18.951Z,71.07
2019-02-04T04:46:46.945Z,69.93
2019-02-04T04:49:14.993Z,66.90
2019-02-04T04:51:42.984Z,67.07
2019-02-04T04:54:10.937Z,70.37
2019-02-04T04:56:38.878Z,67.37
2019-02-04T04:59:06.875Z,67.77
2019-02-04T05:01:35.034Z,67.07
2019-02-04T05:06:46.653Z,71.37
2019-02-04T05:09:14.626Z,67.57
2019-02-04T05:11:42.693Z,71.63
2019-02-04T05:14:12.431Z,67.57
2019-02-04T05:16:40.383Z,67.90
2019-02-04T05:19:08.427Z,74.60
2019-02-04T05:21:36.424Z,66.80
2019-02-04T05:24:04.593Z,67.80
2019-02-04T05:26:32.693Z,71.53
2019-02-04T05:29:19.903Z,67.90
2019-02-04T05:34:29.954Z,69.90
2019-02-04T05:39:37.803Z,66.77
2019-02-04T05:42:05.850Z,66.65
2019-02-04T05:44:33.915Z,66.70
2019-02-04T05:47:01.988Z,66.10
2019-02-04T05:49:30.033Z,67.40
2019-02-04T05:51:59.698Z,69.13
2019-02-04T05:54:27.720Z,69.27
2019-02-04T05:56:55.722Z,70.53
2019-02-04T05:59:23.748Z,69.10
2019-02-04T06:01:51.763Z,67.20
2019-02-04T06:04:19.818Z,67.90
2019-02-04T06:06:49.541Z,66.90
2019-02-04T06:09:17.604Z,66.67
2019-02-04T06:11:45.675Z,67.70
2019-02-04T06:16:55.738Z,68.00
2019-02-04T06:19:25.370Z,70.20
2019-02-04T06:21:53.413Z,67.73
2019-02-04T06:24:21.361Z,70.20
2019-02-04T06:26:49.349Z,77.20
2019-02-04T06:29:17.407Z,67.97
2019-02-04T06:34:26.982Z,68.47
2019-02-04T06:36:55.049Z,67.30
2019-02-04T06:39:23.036Z,71.57
2019-02-04T06:41:51.083Z,68.80
2019-02-04T06:44:19.160Z,67.27
2019-02-04T06:46:47.105Z,67.70
2019-02-04T06:49:16.808Z,66.43
2019-02-04T06:51:44.861Z,72.20
2019-02-04T06:54:31.807Z,67.57
2019-02-04T06:56:59.814Z,67.97
2019-02-04T06:59:27.700Z,68.57
2019-02-04T07:01:57.713Z,66.00
2019-02-04T07:04:25.442Z,66.77
2019-02-04T07:06:53.421Z,67.67
2019-02-04T07:09:21.384Z,65.60
2019-02-04T07:11:49.473Z,66.47
2019-02-04T07:14:17.521Z,65.40
2019-02-04T07:16:47.261Z,65.20
2019-02-04T07:19:23.968Z,66.23
2019-02-04T07:21:44.963Z,66.33
2019-02-04T07:24:13.022Z,65.20
2019-02-04T07:26:40.973Z,67.40
2019-02-04T07:29:08.959Z,67.47
2019-02-04T07:31:37.035Z,66.00
2019-02-04T07:34:05.216Z,68.60
2019-02-04T07:36:33.219Z,67.00
2019-02-04T07:39:01.209Z,67.33
2019-02-04T07:41:29.401Z,66.73
2019-02-04T07:43:58.570Z,66.93
2019-02-04T07:46:26.537Z,66.60
2019-02-04T07:48:54.786Z,66.53
2019-02-04T07:51:22.775Z,66.80
2019-02-04T07:53:50.984Z,66.10
2019-02-04T07:56:18.920Z,65.80
2019-02-04T07:58:47.997Z,67.17
2019-02-04T08:01:15.968Z,65.70
2019-02-04T08:03:44.051Z,67.10
2019-02-04T08:06:12.024Z,65.40
2019-02-04T08:08:40.028Z,67.07
2019-02-04T08:11:08.461Z,65.87
2019-02-04T08:13:36.522Z,67.60
2019-02-04T08:16:04.684Z,65.73
2019-02-04T08:18:32.752Z,65.37
2019-02-04T08:21:01.145Z,65.87
2019-02-04T08:23:29.462Z,65.70
2019-02-04T08:25:57.517Z,67.30
2019-02-04T08:28:25.580Z,64.70
2019-02-04T08:30:53.624Z,66.60
2019-02-04T08:33:21.637Z,65.60
2019-02-04T08:35:49.702Z,67.40
2019-02-04T08:38:18.985Z,65.90
2019-02-04T08:40:46.978Z,66.60
2019-02-04T08:43:15.081Z,66.87
2019-02-04T08:45:43.062Z,66.27
2019-02-04T08:48:11.009Z,66.70
2019-02-04T08:50:39.081Z,65.77
2019-02-04T08:53:07.021Z,66.07
2019-02-04T08:55:36.309Z,66.57
2019-02-04T08:58:04.595Z,64.90
2019-02-04T09:00:32.537Z,67.37
2019-02-04T09:03:00.484Z,66.20
2019-02-04T09:05:28.560Z,68.73
2019-02-04T09:07:56.641Z,65.90
2019-02-04T09:10:25.910Z,67.20
2019-02-04T09:12:54.183Z,66.23
2019-02-04T09:15:22.239Z,67.10
2019-02-04T09:17:50.311Z,66.50
2019-02-04T09:20:18.394Z,66.30
2019-02-04T09:22:46.495Z,69.00
2019-02-04T09:25:15.295Z,66.37
2019-02-04T09:27:43.372Z,65.77
2019-02-04T09:30:13.657Z,65.40
2019-02-04T09:32:41.705Z,65.60
2019-02-04T09:35:10.721Z,64.87
2019-02-04T09:37:38.756Z,66.07
2019-02-04T09:40:07.566Z,65.30
2019-02-04T09:42:36.688Z,66.87
2019-02-04T09:45:05.063Z,65.40
2019-02-04T09:47:33.125Z,65.20
2019-02-04T09:50:01.079Z,66.20
2019-02-04T09:52:29.108Z,69.57
2019-02-04T09:54:58.085Z,64.97
2019-02-04T09:57:26.177Z,65.63
2019-02-04T09:59:54.294Z,64.80
2019-02-04T10:02:22.580Z,65.53
2019-02-04T10:04:50.664Z,66.03
2019-02-04T10:07:18.760Z,65.77
2019-02-04T10:09:46.721Z,65.67
2019-02-04T10:12:14.800Z,65.07
2019-02-04T10:14:42.865Z,65.03
2019-02-04T10:17:11.248Z,65.70
2019-02-04T10:19:39.284Z,64.60
2019-02-04T10:22:07.243Z,65.90
2019-02-04T10:24:35.228Z,69.30
2019-02-04T10:27:03.296Z,65.77
2019-02-04T10:29:31.375Z,65.90
2019-02-04T10:31:59.365Z,66.40
2019-02-04T10:34:27.361Z,65.80
2019-02-04T10:36:55.309Z,65.87
2019-02-04T10:39:23.242Z,65.90
2019-02-04T10:41:51.363Z,69.07
2019-02-04T10:44:19.313Z,64.90
2019-02-04T10:46:47.400Z,65.87
2019-02-04T10:49:15.827Z,65.17
2019-02-04T10:51:43.956Z,67.67
2019-02-04T10:54:11.968Z,64.87
2019-02-04T10:56:40.027Z,67.17
2019-02-04T10:59:07.986Z,66.70
2019-02-04T11:01:36.087Z,65.00
2019-02-04T11:04:04.125Z,66.17
2019-02-04T11:06:32.515Z,71.70
2019-02-04T11:09:00.754Z,65.20
2019-02-04T11:11:28.724Z,68.30
2019-02-04T11:13:56.717Z,65.20
2019-02-04T11:16:24.978Z,66.70
2019-02-04T11:18:52.919Z,66.07
2019-02-04T11:21:20.880Z,65.90
2019-02-04T11:23:49.083Z,65.57
2019-02-04T11:26:17.035Z,65.87
2019-02-04T11:28:45.094Z,67.07
2019-02-04T11:31:13.028Z,66.67
2019-02-04T11:33:41.140Z,65.23
2019-02-04T11:36:09.115Z,65.63
2019-02-04T11:38:37.453Z,65.80
2019-02-04T11:41:05.647Z,65.67
2019-02-04T11:43:33.743Z,65.47
2019-02-04T11:46:01.832Z,66.70
2019-02-04T11:48:29.896Z,66.80
2019-02-04T11:51:08.988Z,64.97
2019-02-04T11:53:33.007Z,67.10
2019-02-04T11:55:57.348Z,65.10
2019-02-04T11:58:25.313Z,67.80
2019-02-04T12:00:53.807Z,66.30
2019-02-04T12:03:21.767Z,67.27
2019-02-04T12:05:49.856Z,66.20
2019-02-04T12:08:18.487Z,67.23
2019-02-04T12:10:50.829Z,65.87
2019-02-04T12:13:18.804Z,70.47
2019-02-04T12:15:46.837Z,66.03
2019-02-04T12:18:14.820Z,65.57
2019-02-04T12:20:42.886Z,67.80
2019-02-04T12:23:11.334Z,65.80
2019-02-04T12:25:40.600Z,65.07
2019-02-04T12:28:08.542Z,66.40
2019-02-04T12:30:37.539Z,68.97
2019-02-04T12:33:06.428Z,66.47
2019-02-04T12:35:34.479Z,67.17
2019-02-04T12:38:02.559Z,66.43
2019-02-04T12:40:31.043Z,65.97
2019-02-04T12:42:59.144Z,68.07
2019-02-04T12:45:28.673Z,66.77
2019-02-04T12:48:00.735Z,68.90
2019-02-04T12:50:27.490Z,66.37
2019-02-04T12:52:55.701Z,68.17
2019-02-04T12:55:24.780Z,66.00
2019-02-04T12:57:53.363Z,66.20
2019-02-04T13:00:22.537Z,66.73
2019-02-04T13:02:50.530Z,68.30
2019-02-04T13:05:23.016Z,66.87
2019-02-04T13:07:51.067Z,67.30
2019-02-04T13:10:19.503Z,66.47
2019-02-04T13:12:47.537Z,66.67
2019-02-04T13:15:16.944Z,65.67
2019-02-04T13:17:45.009Z,65.80
2019-02-04T13:20:14.376Z,70.10
2019-02-04T13:22:42.386Z,68.57
2019-02-04T13:25:11.500Z,65.73
2019-02-04T13:27:39.613Z,65.40
2019-02-04T13:30:09.892Z,66.10
2019-02-04T13:32:37.919Z,66.90
2019-02-04T13:35:06.110Z,66.90
2019-02-04T13:37:34.183Z,78.40
2019-02-04T13:40:02.220Z,65.97
2019-02-04T13:42:30.666Z,67.80
2019-02-04T13:44:58.666Z,66.47
2019-02-04T13:47:26.667Z,65.30
2019-02-04T13:49:54.778Z,66.30
2019-02-04T13:52:22.830Z,67.40
2019-02-04T13:54:50.886Z,68.50
2019-02-04T13:57:19.404Z,66.50
2019-02-04T13:59:47.336Z,67.00
2019-02-04T14:02:15.402Z,66.20
2019-02-04T14:04:43.488Z,67.73
2019-02-04T14:07:11.634Z,65.87
2019-02-04T14:09:39.640Z,65.47
2019-02-04T14:12:07.730Z,66.50
2019-02-04T14:14:35.737Z,66.93
2019-02-04T14:17:03.942Z,73.13
2019-02-04T14:19:31.992Z,68.37
2019-02-04T14:22:09.034Z,66.60
2019-02-04T14:24:29.665Z,67.80
2019-02-04T14:26:57.753Z,68.63
2019-02-04T14:29:26.008Z,67.87
2019-02-04T14:31:54.054Z,72.30
2019-02-04T14:34:22.104Z,77.33
2019-02-04T14:36:54.914Z,69.27
2019-02-04T14:39:22.840Z,74.77
2019-02-04T14:41:50.914Z,67.47
2019-02-04T14:44:24.740Z,72.23
2019-02-04T14:47:11.894Z,71.33
2019-02-04T14:49:59.030Z,76.37
2019-02-04T14:52:36.196Z,70.77
2019-02-04T14:55:23.291Z,72.23
2019-02-04T14:58:10.388Z,71.70
2019-02-04T15:01:06.793Z,68.57
2019-02-04T15:03:57.257Z,65.87
2019-02-04T15:06:33.463Z,70.23
2019-02-04T15:09:35.667Z,67.47
2019-02-04T15:12:11.318Z,69.00
2019-02-04T15:14:49.608Z,67.70
2019-02-04T15:17:20.613Z,68.00
2019-02-04T15:19:57.593Z,68.17
2019-02-04T15:22:47.839Z,69.93
2019-02-04T15:25:34.233Z,70.13
2019-02-04T15:28:08.771Z,70.90
2019-02-04T15:30:55.999Z,68.17
2019-02-04T15:33:46.063Z,68.67
2019-02-04T15:36:21.183Z,69.50
2019-02-04T15:39:00.797Z,69.97
2019-02-04T15:41:34.722Z,70.00
2019-02-04T15:44:21.978Z,68.27
2019-02-04T15:46:56.041Z,72.37
2019-02-04T15:49:50.369Z,74.47
2019-02-04T15:52:12.858Z,69.70
2019-02-04T15:54:40.841Z,69.57
2019-02-04T15:57:08.977Z,74.40
2019-02-04T15:59:37.306Z,70.77
2019-02-04T16:02:05.476Z,70.50
2019-02-04T16:04:34.451Z,69.70
2019-02-04T16:07:03.256Z,70.50
2019-02-04T16:09:31.365Z,72.67
2019-02-04T16:11:59.401Z,74.53
2019-02-04T16:14:27.585Z,71.87
2019-02-04T16:16:55.816Z,73.63
2019-02-04T16:19:23.820Z,74.30
2019-02-04T16:21:51.952Z,76.30
2019-02-04T16:24:19.944Z,77.57
2019-02-04T16:26:47.901Z,75.13
2019-02-04T16:29:15.911Z,74.90
2019-02-04T16:31:44.615Z,74.90
2019-02-04T16:34:12.659Z,74.10
2019-02-04T16:36:40.729Z,73.10
2019-02-04T16:39:09.724Z,79.30
2019-02-04T16:41:37.794Z,76.40
2019-02-04T16:44:06.221Z,74.77
2019-02-04T16:46:34.244Z,83.03
2019-02-04T16:49:02.316Z,75.80
2019-02-04T16:51:30.252Z,78.70
2019-02-04T16:53:58.550Z,74.60
2019-02-04T16:56:26.606Z,78.17
2019-02-04T16:58:54.576Z,79.20
2019-02-04T17:01:22.608Z,81.97
2019-02-04T17:03:50.616Z,75.90
2019-02-04T17:06:18.605Z,73.77
2019-02-04T17:08:46.664Z,78.77
2019-02-04T17:11:14.753Z,79.53
2019-02-04T17:13:42.827Z,77.90
2019-02-04T17:16:10.867Z,77.37
2019-02-04T17:18:38.850Z,76.67
2019-02-04T17:21:07.215Z,77.60
2019-02-04T17:23:35.167Z,78.10
2019-02-04T17:26:03.214Z,77.63
2019-02-04T17:28:31.228Z,78.27
2019-02-04T17:30:59.222Z,77.67
2019-02-04T17:33:27.301Z,76.30
2019-02-04T17:35:55.385Z,78.57
2019-02-04T17:38:23.854Z,79.87
2019-02-04T17:40:51.901Z,78.90
2019-02-04T17:43:19.918Z,80.00
2019-02-04T17:45:47.947Z,78.87
2019-02-04T17:48:15.890Z,82.43
2019-02-04T17:50:43.932Z,79.73
2019-02-04T17:53:11.939Z,76.77
2019-02-04T17:55:39.942Z,77.60
2019-02-04T17:58:07.991Z,75.90
2019-02-04T18:00:42.398Z,77.97
2019-02-04T18:03:10.402Z,77.50
2019-02-04T18:05:38.437Z,78.20
2019-02-04T18:08:06.761Z,76.10
2019-02-04T18:10:34.794Z,78.87
2019-02-04T18:13:02.796Z,77.60
2019-02-04T18:15:30.826Z,78.97
2019-02-04T18:17:58.813Z,79.60
2019-02-04T18:20:26.792Z,76.40
2019-02-04T18:22:54.845Z,76.37
2019-02-04T18:25:23.212Z,76.17
2019-02-04T18:27:51.330Z,77.27
2019-02-04T18:30:19.922Z,77.13
2019-02-04T18:32:48.984Z,78.50
2019-02-04T18:35:17.181Z,77.37
2019-02-04T18:37:45.241Z,79.50
2019-02-04T18:40:13.934Z,77.30
2019-02-04T18:42:42.504Z,77.70
2019-02-04T18:45:12.417Z,78.93
2019-02-04T18:47:40.473Z,80.57
2019-02-04T18:50:08.569Z,78.27
2019-02-04T18:52:37.198Z,77.60
2019-02-04T18:55:05.480Z,83.27
2019-02-04T18:57:33.499Z,76.87
2019-02-04T19:00:02.458Z,78.33
2019-02-04T19:02:31.500Z,79.93
2019-02-04T19:04:59.482Z,81.77
2019-02-04T19:07:27.612Z,83.10
2019-02-04T19:09:55.830Z,89.40
2019-02-04T19:12:23.976Z,83.90
2019-02-04T19:14:54.678Z,80.97
2019-02-04T19:17:21.781Z,78.97
2019-02-04T19:19:49.805Z,86.10
2019-02-04T19:22:17.798Z,84.90
2019-02-04T19:24:45.854Z,79.20
2019-02-04T19:27:14.064Z,86.77
2019-02-04T19:29:42.107Z,74.20
2019-02-04T19:32:10.486Z,77.27
2019-02-04T19:34:38.698Z,77.03
2019-02-04T19:37:06.764Z,76.47
2019-02-04T19:39:35.202Z,76.77
2019-02-04T19:42:03.569Z,80.30
2019-02-04T19:44:31.487Z,80.13
2019-02-04T19:46:59.577Z,77.30
2019-02-04T19:49:27.883Z,73.70
2019-02-04T19:51:55.868Z,78.47
2019-02-04T19:54:24.136Z,89.27
2019-02-04T19:56:52.236Z,76.90
2019-02-04T19:59:21.225Z,81.40
2019-02-04T20:01:49.364Z,82.10
2019-02-04T20:04:17.409Z,85.83
2019-02-04T20:06:45.532Z,127.23
2019-02-04T20:09:13.603Z,79.70
2019-02-04T20:11:41.981Z,78.17
2019-02-04T20:14:10.234Z,80.07
2019-02-04T20:16:39.383Z,81.93
2019-02-04T20:19:07.712Z,77.47
2019-02-04T20:21:35.908Z,78.47
2019-02-04T20:24:04.596Z,78.70
2019-02-04T20:26:32.814Z,76.77
2019-02-04T20:29:00.846Z,76.47
2019-02-04T20:31:29.443Z,80.37
2019-02-04T20:33:57.925Z,85.00
2019-02-04T20:36:25.996Z,79.80
2019-02-04T20:38:54.177Z,81.27
2019-02-04T20:41:22.227Z,81.70
2019-02-04T20:43:50.324Z,81.13
2019-02-04T20:46:18.593Z,77.10
2019-02-04T20:48:47.062Z,77.90
2019-02-04T20:51:15.144Z,77.37
2019-02-04T20:53:43.327Z,78.07
2019-02-04T20:56:11.435Z,77.37
2019-02-04T20:58:39.466Z,77.33
2019-02-04T21:01:07.606Z,135.07
2019-02-04T21:03:35.584Z,83.13
2019-02-04T21:06:03.879Z,75.03
2019-02-04T21:08:31.934Z,76.23
2019-02-04T21:11:00.058Z,83.60
2019-02-04T21:13:28.057Z,78.57
2019-02-04T21:15:56.131Z,80.33
2019-02-04T21:18:24.390Z,77.47
2019-02-04T21:20:52.463Z,75.50
2019-02-04T21:23:20.549Z,79.70
2019-02-04T21:25:49.666Z,82.10
2019-02-04T21:28:18.398Z,75.20
2019-02-04T21:30:47.375Z,80.20
2019-02-04T21:33:16.867Z,76.90
2019-02-04T21:35:45.947Z,77.67
2019-02-04T21:38:15.012Z,76.77
2019-02-04T21:40:43.749Z,77.40
2019-02-04T21:43:12.540Z,76.57
2019-02-04T21:45:42.153Z,73.97
2019-02-04T21:48:11.564Z,76.60
2019-02-04T21:50:41.070Z,75.50
2019-02-04T21:53:10.732Z,76.10
2019-02-04T21:55:40.672Z,79.50
2019-02-04T21:58:09.898Z,76.20
2019-02-04T22:00:40.517Z,75.07
2019-02-04T22:03:11.427Z,76.40
2019-02-04T22:05:40.847Z,74.07
2019-02-04T22:08:10.368Z,77.20
2019-02-04T22:10:39.864Z,75.70
2019-02-04T22:13:07.923Z,76.97
2019-02-04T22:15:37.365Z,80.73
2019-02-04T22:18:06.447Z,77.77
2019-02-04T22:20:35.826Z,76.57
2019-02-04T22:23:05.026Z,82.97
2019-02-04T22:25:34.014Z,76.37
2019-02-04T22:28:03.313Z,75.17
2019-02-04T22:30:33.513Z,77.87
2019-02-04T22:33:10.583Z,75.10
2019-02-04T22:35:39.411Z,75.70
2019-02-04T22:38:08.557Z,75.73
2019-02-04T22:40:37.885Z,75.87
2019-02-04T22:43:06.786Z,76.47
2019-02-04T22:45:35.918Z,73.43
2019-02-04T22:48:04.805Z,74.50
2019-02-04T22:50:33.406Z,77.43
2019-02-04T22:53:02.691Z,76.93
2019-02-04T22:55:32.595Z,77.20
2019-02-04T22:58:02.515Z,75.83
2019-02-04T23:00:53.497Z,74.77
2019-02-04T23:03:22.734Z,75.90
2019-02-04T23:05:53.691Z,80.10
2019-02-04T23:08:22.601Z,79.00
2019-02-04T23:10:51.146Z,75.50
2019-02-04T23:13:19.987Z,78.57
2019-02-04T23:15:48.867Z,77.97
2019-02-04T23:18:18.108Z,86.90
2019-02-04T23:20:46.981Z,77.53
2019-02-04T23:23:16.584Z,78.47
2019-02-04T23:25:45.778Z,80.67
2019-02-04T23:28:15.254Z,81.13
2019-02-04T23:30:44.484Z,78.87
2019-02-04T23:33:13.504Z,75.37
2019-02-04T23:35:42.520Z,80.47
2019-02-04T23:38:11.546Z,73.70
2019-02-04T23:40:40.328Z,76.07
2019-02-04T23:43:08.359Z,77.27
2019-02-04T23:45:37.956Z,79.90
2019-02-04T23:48:06.119Z,78.77
2019-02-04T23:50:34.149Z,74.10
2019-02-04T23:53:02.248Z,78.70
2019-02-04T23:55:30.307Z,75.90
2019-02-04T23:57:58.532Z,78.87
